createdAt,value
2019-02-17T00:01:48.859Z,54.23
2019-02-17T00:04:35.980Z,54.15
2019-02-17T00:07:23.307Z,53.76
2019-02-17T00:10:10.825Z,53.87
2019-02-17T00:12:58.453Z,53.48
2019-02-17T00:15:45.772Z,53.11
2019-02-17T00:18:33.402Z,53.26
2019-02-17T00:21:20.929Z,53.47
2019-02-17T00:24:08.772Z,54.68
2019-02-17T00:26:56.408Z,53.88
2019-02-17T00:29:44.021Z,53.75
2019-02-17T00:32:31.750Z,53.66
2019-02-17T00:35:18.973Z,53.59
2019-02-17T00:38:06.701Z,53.37
2019-02-17T00:40:54.536Z,53.20
2019-02-17T00:43:42.339Z,53.24
2019-02-17T00:46:30.000Z,53.71
2019-02-17T00:49:17.702Z,55.42
2019-02-17T00:52:05.334Z,54.97
2019-02-17T00:54:52.887Z,55.38
2019-02-17T00:57:41.211Z,54.55
2019-02-17T01:00:28.547Z,54.13
2019-02-17T01:03:16.287Z,53.99
2019-02-17T01:06:03.499Z,54.27
2019-02-17T01:08:50.821Z,53.83
2019-02-17T01:11:38.143Z,54.25
2019-02-17T01:14:25.683Z,54.54
2019-02-17T01:17:12.964Z,55.54
2019-02-17T01:20:00.435Z,55.68
2019-02-17T01:22:47.840Z,55.18
2019-02-17T01:25:35.171Z,54.62
2019-02-17T01:28:22.593Z,53.63
2019-02-17T01:31:10.118Z,53.45
2019-02-17T01:33:57.545Z,53.39
2019-02-17T01:36:45.072Z,53.55
2019-02-17T01:39:32.689Z,54.02
2019-02-17T01:42:20.934Z,53.23
2019-02-17T01:45:09.583Z,53.17
2019-02-17T01:47:56.610Z,53.28
2019-02-17T01:50:44.108Z,53.37
2019-02-17T01:53:31.661Z,53.40
2019-02-17T01:56:19.091Z,53.58
2019-02-17T01:59:06.816Z,53.96
2019-02-17T02:01:54.387Z,53.83
2019-02-17T02:04:42.075Z,53.89
2019-02-17T02:07:29.505Z,53.93
2019-02-17T02:10:17.023Z,53.91
2019-02-17T02:13:04.142Z,54.07
2019-02-17T02:15:51.871Z,54.53
2019-02-17T02:18:39.401Z,54.66
2019-02-17T02:21:26.585Z,54.42
2019-02-17T02:24:14.349Z,54.25
2019-02-17T02:27:01.672Z,54.62
2019-02-17T02:29:49.403Z,55.02
2019-02-17T02:32:36.827Z,56.26
2019-02-17T02:35:24.261Z,56.94
2019-02-17T02:38:13.559Z,56.50
2019-02-17T02:41:01.153Z,56.81
2019-02-17T02:43:48.407Z,56.94
2019-02-17T02:46:36.202Z,55.17
2019-02-17T02:49:23.315Z,55.23
2019-02-17T02:52:10.951Z,55.36
2019-02-17T02:54:58.474Z,55.31
2019-02-17T02:57:45.795Z,55.23
2019-02-17T03:00:33.527Z,55.44
2019-02-17T03:03:21.255Z,56.89
2019-02-17T03:06:10.625Z,57.55
2019-02-17T03:08:57.845Z,56.49
2019-02-17T03:11:45.270Z,56.21
2019-02-17T03:14:32.611Z,55.84
2019-02-17T03:17:20.322Z,55.46
2019-02-17T03:20:09.638Z,55.98
2019-02-17T03:22:56.708Z,56.04
2019-02-17T03:25:45.289Z,56.29
2019-02-17T03:28:33.292Z,56.49
2019-02-17T03:31:21.033Z,56.42
2019-02-17T03:34:08.556Z,56.33
2019-02-17T03:36:56.182Z,56.33
2019-02-17T03:39:44.329Z,56.35
2019-02-17T03:42:31.232Z,56.48
2019-02-17T03:45:18.764Z,56.48
2019-02-17T03:48:06.289Z,56.49
2019-02-17T03:50:53.627Z,56.52
2019-02-17T03:53:41.134Z,56.56
2019-02-17T03:56:28.968Z,58.24
2019-02-17T03:59:16.527Z,59.43
2019-02-17T04:02:04.280Z,58.49
2019-02-17T04:04:51.958Z,58.07
2019-02-17T04:07:39.287Z,58.30
2019-02-17T04:10:28.571Z,57.57
2019-02-17T04:13:15.571Z,57.29
2019-02-17T04:16:02.881Z,56.86
2019-02-17T04:18:50.203Z,56.75
2019-02-17T04:21:38.041Z,56.58
2019-02-17T04:24:25.462Z,56.79
2019-02-17T04:27:12.785Z,56.41
2019-02-17T04:30:00.674Z,56.15
2019-02-17T04:32:48.050Z,56.13
2019-02-17T04:35:35.470Z,56.06
2019-02-17T04:38:22.996Z,56.04
2019-02-17T04:41:10.830Z,56.54
2019-02-17T04:43:58.252Z,57.25
2019-02-17T04:46:45.371Z,57.90
2019-02-17T04:49:33.101Z,57.63
2019-02-17T04:52:20.731Z,57.25
2019-02-17T04:55:08.764Z,57.78
2019-02-17T04:57:56.294Z,57.85
2019-02-17T05:00:44.341Z,57.37
2019-02-17T05:03:31.654Z,57.25
2019-02-17T05:06:18.975Z,57.31
2019-02-17T05:09:06.807Z,57.26
2019-02-17T05:11:53.928Z,57.37
2019-02-17T05:14:41.040Z,57.17
2019-02-17T05:17:28.885Z,57.13
2019-02-17T05:20:16.613Z,57.17
2019-02-17T05:23:04.137Z,57.09
2019-02-17T05:25:51.802Z,57.10
2019-02-17T05:28:39.505Z,57.24
2019-02-17T05:31:27.326Z,57.80
2019-02-17T05:34:15.163Z,58.12
2019-02-17T05:37:02.180Z,58.13
2019-02-17T05:39:49.398Z,57.90
2019-02-17T05:42:37.235Z,57.92
2019-02-17T05:45:24.958Z,57.82
2019-02-17T05:48:12.593Z,60.81
2019-02-17T05:51:00.318Z,60.28
2019-02-17T05:53:48.054Z,59.21
2019-02-17T05:56:35.583Z,58.67
2019-02-17T05:59:22.670Z,57.94
2019-02-17T06:02:10.325Z,57.76
2019-02-17T06:04:57.857Z,58.32
2019-02-17T06:07:45.181Z,57.74
2019-02-17T06:10:32.799Z,57.83
2019-02-17T06:13:20.326Z,57.56
2019-02-17T06:16:07.753Z,58.10
2019-02-17T06:18:55.175Z,61.30
2019-02-17T06:21:43.217Z,62.07
2019-02-17T06:24:31.155Z,61.92
2019-02-17T06:27:19.692Z,61.94
2019-02-17T06:30:09.200Z,62.32
2019-02-17T06:32:57.007Z,61.57
2019-02-17T06:35:44.428Z,60.46
2019-02-17T06:38:31.956Z,59.18
2019-02-17T06:41:19.380Z,59.02
2019-02-17T06:44:06.702Z,59.71
2019-02-17T06:46:55.456Z,59.31
2019-02-17T06:49:42.677Z,58.92
2019-02-17T06:52:29.998Z,58.75
2019-02-17T06:55:28.380Z,60.05
2019-02-17T06:58:16.109Z,59.87
2019-02-17T07:01:03.444Z,59.53
2019-02-17T07:03:51.066Z,60.73
2019-02-17T07:06:39.874Z,60.49
2019-02-17T07:09:27.242Z,60.18
2019-02-17T07:12:14.873Z,60.82
2019-02-17T07:15:02.193Z,60.49
2019-02-17T07:17:49.619Z,60.16
2019-02-17T07:20:37.039Z,60.12
2019-02-17T07:23:24.876Z,60.23
2019-02-17T07:26:12.501Z,60.51
2019-02-17T07:28:59.818Z,60.49
2019-02-17T07:31:47.351Z,60.25
2019-02-17T07:34:34.884Z,61.71
2019-02-17T07:37:32.723Z,62.93
2019-02-17T07:40:11.466Z,63.10
2019-02-17T07:42:58.890Z,62.81
2019-02-17T07:45:46.318Z,62.35
2019-02-17T07:48:33.737Z,61.92
2019-02-17T07:51:21.060Z,61.59
2019-02-17T07:54:08.789Z,61.33
2019-02-17T07:56:55.922Z,62.07
2019-02-17T07:59:43.333Z,61.63
2019-02-17T08:02:30.550Z,61.07
2019-02-17T08:05:18.602Z,60.63
2019-02-17T08:08:06.012Z,60.43
2019-02-17T08:11:03.444Z,60.96
2019-02-17T08:13:42.806Z,61.44
2019-02-17T08:16:30.639Z,61.48
2019-02-17T08:19:18.375Z,60.81
2019-02-17T08:22:05.836Z,61.95
2019-02-17T08:24:53.526Z,63.15
2019-02-17T08:27:41.155Z,61.99
2019-02-17T08:30:28.578Z,61.04
2019-02-17T08:33:15.798Z,60.55
2019-02-17T08:36:03.427Z,60.06
2019-02-17T08:38:51.057Z,60.01
2019-02-17T08:41:38.584Z,60.42
2019-02-17T08:44:26.426Z,59.32
2019-02-17T08:47:14.251Z,59.67
2019-02-17T08:50:01.701Z,57.58
2019-02-17T08:52:49.104Z,58.75
2019-02-17T08:55:36.841Z,57.36
2019-02-17T08:58:24.253Z,57.93
2019-02-17T09:01:11.369Z,57.50
2019-02-17T09:03:58.617Z,55.36
2019-02-17T09:06:46.014Z,56.79
2019-02-17T09:09:33.550Z,57.83
2019-02-17T09:12:21.479Z,57.25
2019-02-17T09:15:12.649Z,56.53
2019-02-17T09:18:00.630Z,55.81
2019-02-17T09:20:48.005Z,55.05
2019-02-17T09:23:35.781Z,55.19
2019-02-17T09:26:23.408Z,54.63
2019-02-17T09:29:11.556Z,54.29
2019-02-17T09:31:59.560Z,53.96
2019-02-17T09:34:47.218Z,53.81
2019-02-17T09:37:34.643Z,53.76
2019-02-17T09:40:22.475Z,52.06
2019-02-17T09:43:09.875Z,49.93
2019-02-17T09:45:57.529Z,49.76
2019-02-17T09:48:44.953Z,50.97
2019-02-17T09:51:32.278Z,51.81
2019-02-17T09:54:20.021Z,50.57
2019-02-17T09:57:07.839Z,51.35
2019-02-17T09:59:55.371Z,51.74
2019-02-17T10:02:42.790Z,51.06
2019-02-17T10:05:30.120Z,48.63
2019-02-17T10:08:17.848Z,48.37
2019-02-17T10:11:16.441Z,47.79
2019-02-17T10:14:03.861Z,45.37
2019-02-17T10:16:51.381Z,45.58
2019-02-17T10:19:38.668Z,44.67
2019-02-17T10:22:26.021Z,43.81
2019-02-17T10:25:13.241Z,45.76
2019-02-17T10:28:00.874Z,44.13
2019-02-17T10:30:48.498Z,45.29
2019-02-17T10:33:36.493Z,46.23
2019-02-17T10:36:24.169Z,44.00
2019-02-17T10:39:11.804Z,44.45
2019-02-17T10:41:59.223Z,43.50
2019-02-17T10:44:47.097Z,42.04
2019-02-17T10:47:34.888Z,42.21
2019-02-17T10:50:22.577Z,41.66
2019-02-17T10:53:09.949Z,40.82
2019-02-17T10:55:57.588Z,40.66
2019-02-17T10:58:45.507Z,39.60
2019-02-17T11:01:32.622Z,39.83
2019-02-17T11:04:20.046Z,39.30
2019-02-17T11:07:07.573Z,38.92
2019-02-17T11:09:55.822Z,38.75
2019-02-17T11:12:43.643Z,38.08
2019-02-17T11:15:30.982Z,38.06
2019-02-17T11:18:18.599Z,37.14
2019-02-17T11:21:05.927Z,37.19
2019-02-17T11:23:53.608Z,37.06
2019-02-17T11:26:41.588Z,36.45
2019-02-17T11:29:29.424Z,36.87
2019-02-17T11:32:16.847Z,35.47
2019-02-17T11:35:05.521Z,36.43
2019-02-17T11:37:53.232Z,35.40
2019-02-17T11:40:41.215Z,34.97
2019-02-17T11:43:28.604Z,36.08
2019-02-17T11:46:16.016Z,35.54
2019-02-17T11:49:03.543Z,35.68
2019-02-17T11:51:50.766Z,35.45
2019-02-17T11:54:37.880Z,33.70
2019-02-17T11:57:25.200Z,34.93
2019-02-17T12:00:18.268Z,34.77
2019-02-17T12:03:08.330Z,33.81
2019-02-17T12:05:55.054Z,33.91
2019-02-17T12:08:46.879Z,33.43
2019-02-17T12:11:34.207Z,34.42
2019-02-17T12:14:21.829Z,33.43
2019-02-17T12:17:09.767Z,33.78
2019-02-17T12:19:59.243Z,33.01
2019-02-17T12:22:48.309Z,32.07
2019-02-17T12:25:40.949Z,31.11
2019-02-17T12:28:36.257Z,30.05
2019-02-17T12:31:25.012Z,29.62
2019-02-17T12:34:12.435Z,30.13
2019-02-17T12:37:00.167Z,29.27
2019-02-17T12:39:47.799Z,30.07
2019-02-17T12:42:35.434Z,28.38
2019-02-17T12:45:22.747Z,28.40
2019-02-17T12:48:10.078Z,28.06
2019-02-17T12:50:57.287Z,28.59
2019-02-17T12:53:45.019Z,28.92
2019-02-17T12:56:32.143Z,28.74
2019-02-17T12:59:19.670Z,28.56
2019-02-17T13:02:07.197Z,30.06
2019-02-17T13:04:54.513Z,29.33
2019-02-17T13:07:42.900Z,28.96
2019-02-17T13:10:30.286Z,29.06
2019-02-17T13:13:17.891Z,29.08
2019-02-17T13:16:05.640Z,28.56
2019-02-17T13:18:53.576Z,29.09
2019-02-17T13:21:41.017Z,28.20
2019-02-17T13:24:28.425Z,28.04
2019-02-17T13:27:16.236Z,28.53
2019-02-17T13:30:05.149Z,28.14
2019-02-17T13:32:52.436Z,28.39
2019-02-17T13:35:39.555Z,28.71
2019-02-17T13:38:27.183Z,28.28
2019-02-17T13:41:14.828Z,28.69
2019-02-17T13:44:02.546Z,28.14
2019-02-17T13:46:49.868Z,28.67
2019-02-17T13:49:37.420Z,28.31
2019-02-17T13:52:25.126Z,28.87
2019-02-17T13:55:13.008Z,28.14
2019-02-17T13:58:00.592Z,28.71
2019-02-17T14:00:48.628Z,29.08
2019-02-17T14:03:36.052Z,28.69
2019-02-17T14:06:23.682Z,28.86
2019-02-17T14:09:11.504Z,28.69
2019-02-17T14:11:59.147Z,28.79
2019-02-17T14:14:46.462Z,29.15
2019-02-17T14:17:33.785Z,30.06
2019-02-17T14:20:21.236Z,28.80
2019-02-17T14:23:08.738Z,29.11
2019-02-17T14:25:56.260Z,29.85
2019-02-17T14:28:43.995Z,29.80
2019-02-17T14:31:31.623Z,30.12
2019-02-17T14:34:19.460Z,30.30
2019-02-17T14:37:06.986Z,30.08
2019-02-17T14:39:54.615Z,29.72
2019-02-17T14:42:42.242Z,29.76
2019-02-17T14:45:29.673Z,29.67
2019-02-17T14:48:16.989Z,29.86
2019-02-17T14:51:06.255Z,30.26
2019-02-17T14:53:54.193Z,30.96
2019-02-17T14:56:41.925Z,31.46
2019-02-17T14:59:29.068Z,32.26
2019-02-17T15:02:16.157Z,32.05
2019-02-17T15:05:03.614Z,32.32
2019-02-17T15:07:51.315Z,32.29
2019-02-17T15:10:38.740Z,32.01
2019-02-17T15:13:25.974Z,32.24
2019-02-17T15:16:13.288Z,32.44
2019-02-17T15:19:00.805Z,33.45
2019-02-17T15:21:49.464Z,33.53
2019-02-17T15:24:38.733Z,34.02
2019-02-17T15:27:26.204Z,34.40
2019-02-17T15:30:17.793Z,34.40
2019-02-17T15:33:05.301Z,34.27
2019-02-17T15:35:52.829Z,32.98
2019-02-17T15:38:41.074Z,32.76
2019-02-17T15:41:28.712Z,33.01
2019-02-17T15:44:16.227Z,32.94
2019-02-17T15:47:03.651Z,32.74
2019-02-17T15:49:50.874Z,33.09
2019-02-17T15:52:38.722Z,33.18
2019-02-17T15:55:26.334Z,33.74
2019-02-17T15:58:14.067Z,33.63
2019-02-17T16:01:01.392Z,33.48
2019-02-17T16:03:49.127Z,33.53
2019-02-17T16:06:36.552Z,33.66
2019-02-17T16:09:25.910Z,33.17
2019-02-17T16:12:13.336Z,33.64
2019-02-17T16:15:00.761Z,33.44
2019-02-17T16:17:48.048Z,33.79
2019-02-17T16:20:35.713Z,33.64
2019-02-17T16:23:22.684Z,33.42
2019-02-17T16:26:10.148Z,34.25
2019-02-17T16:28:57.783Z,34.68
2019-02-17T16:31:45.107Z,35.49
2019-02-17T16:34:38.470Z,36.25
2019-02-17T16:37:21.508Z,36.60
2019-02-17T16:40:14.377Z,36.14
2019-02-17T16:43:01.972Z,36.14
2019-02-17T16:45:49.493Z,36.85
2019-02-17T16:48:37.120Z,37.65
2019-02-17T16:51:24.545Z,38.16
2019-02-17T16:54:12.277Z,38.15
2019-02-17T16:56:59.706Z,38.57
2019-02-17T16:59:47.109Z,38.69
2019-02-17T17:02:34.787Z,38.97
2019-02-17T17:05:23.256Z,39.22
2019-02-17T17:08:10.707Z,39.54
2019-02-17T17:10:58.372Z,40.15
2019-02-17T17:13:46.294Z,40.11
2019-02-17T17:16:33.514Z,41.00
2019-02-17T17:19:21.143Z,40.83
2019-02-17T17:22:08.775Z,41.09
2019-02-17T17:24:56.297Z,40.59
2019-02-17T17:27:43.517Z,40.70
2019-02-17T17:30:31.248Z,41.88
2019-02-17T17:33:18.403Z,41.80
2019-02-17T17:36:06.096Z,41.93
2019-02-17T17:38:53.830Z,41.03
2019-02-17T17:41:41.563Z,40.92
2019-02-17T17:44:29.200Z,40.68
2019-02-17T17:47:16.313Z,40.94
2019-02-17T17:50:04.042Z,40.75
2019-02-17T17:52:51.051Z,40.62
2019-02-17T17:55:38.272Z,40.72
2019-02-17T17:58:25.566Z,40.43
2019-02-17T18:01:13.062Z,40.52
2019-02-17T18:04:01.167Z,40.68
2019-02-17T18:06:48.281Z,40.61
2019-02-17T18:09:35.805Z,40.74
2019-02-17T18:12:23.226Z,40.64
2019-02-17T18:15:17.849Z,40.57
2019-02-17T18:18:05.361Z,40.66
2019-02-17T18:20:52.995Z,40.94
2019-02-17T18:23:40.303Z,40.97
2019-02-17T18:26:27.734Z,40.95
2019-02-17T18:29:15.538Z,41.18
2019-02-17T18:32:02.984Z,41.24
2019-02-17T18:34:51.533Z,41.52
2019-02-17T18:37:38.645Z,41.65
2019-02-17T18:40:26.483Z,41.78
2019-02-17T18:43:14.211Z,41.79
2019-02-17T18:46:01.225Z,42.07
2019-02-17T18:48:49.056Z,41.96
2019-02-17T18:51:36.588Z,42.42
2019-02-17T18:54:24.931Z,42.51
2019-02-17T18:57:11.948Z,43.07
2019-02-17T18:59:59.986Z,42.93
2019-02-17T19:02:47.563Z,43.64
2019-02-17T19:05:34.426Z,43.46
2019-02-17T19:08:22.155Z,43.85
2019-02-17T19:11:10.139Z,43.83
2019-02-17T19:13:59.052Z,43.84
2019-02-17T19:16:46.094Z,43.85
2019-02-17T19:19:33.802Z,44.23
2019-02-17T19:22:21.736Z,44.76
2019-02-17T19:25:10.241Z,44.62
2019-02-17T19:27:57.766Z,44.83
2019-02-17T19:30:44.930Z,44.94
2019-02-17T19:33:32.353Z,45.00
2019-02-17T19:36:20.107Z,45.29
2019-02-17T19:39:07.624Z,45.31
2019-02-17T19:41:55.238Z,45.21
2019-02-17T19:44:42.670Z,45.40
2019-02-17T19:47:30.094Z,45.67
2019-02-17T19:50:18.047Z,46.11
2019-02-17T19:53:05.660Z,46.09
2019-02-17T19:55:53.183Z,46.02
2019-02-17T19:58:40.297Z,45.90
2019-02-17T20:01:28.141Z,45.70
2019-02-17T20:04:25.497Z,45.94
2019-02-17T20:07:13.733Z,45.78
2019-02-17T20:10:01.345Z,45.77
2019-02-17T20:12:48.626Z,44.97
2019-02-17T20:15:36.004Z,44.83
2019-02-17T20:18:23.530Z,45.27
2019-02-17T20:21:10.988Z,45.34
2019-02-17T20:23:58.491Z,46.03
2019-02-17T20:26:47.299Z,46.69
2019-02-17T20:29:34.970Z,46.89
2019-02-17T20:32:22.292Z,46.85
2019-02-17T20:35:10.229Z,46.69
2019-02-17T20:37:57.663Z,46.46
2019-02-17T20:40:45.383Z,46.64
2019-02-17T20:43:32.600Z,47.21
2019-02-17T20:46:20.254Z,49.06
2019-02-17T20:49:07.765Z,48.54
2019-02-17T20:51:54.786Z,48.28
2019-02-17T20:54:42.308Z,47.57
2019-02-17T20:57:29.623Z,48.06
2019-02-17T21:00:22.569Z,48.60
2019-02-17T21:03:09.609Z,47.35
2019-02-17T21:05:57.098Z,47.94
2019-02-17T21:08:44.448Z,48.31
2019-02-17T21:11:31.970Z,48.26
2019-02-17T21:14:19.291Z,48.28
2019-02-17T21:17:07.846Z,48.77
2019-02-17T21:19:55.361Z,49.01
2019-02-17T21:22:43.195Z,49.40
2019-02-17T21:25:30.622Z,49.46
2019-02-17T21:28:17.842Z,49.63
2019-02-17T21:31:05.058Z,49.73
2019-02-17T21:33:52.584Z,49.79
2019-02-17T21:36:39.606Z,49.50
2019-02-17T21:39:28.252Z,49.40
2019-02-17T21:42:15.267Z,49.47
2019-02-17T21:45:02.795Z,49.71
2019-02-17T21:47:50.327Z,49.99
2019-02-17T21:50:38.773Z,51.38
2019-02-17T21:53:26.541Z,50.30
2019-02-17T21:56:13.960Z,51.83
2019-02-17T21:59:01.047Z,51.07
2019-02-17T22:01:48.676Z,50.82
2019-02-17T22:04:36.408Z,51.03
2019-02-17T22:07:26.898Z,51.60
2019-02-17T22:10:23.337Z,51.50
2019-02-17T22:13:11.067Z,51.88
2019-02-17T22:16:05.963Z,53.42
2019-02-17T22:18:53.609Z,53.05
2019-02-17T22:21:41.357Z,53.06
2019-02-17T22:24:28.748Z,53.32
2019-02-17T22:27:16.480Z,52.88
2019-02-17T22:30:04.008Z,53.02
2019-02-17T22:32:51.430Z,54.78
2019-02-17T22:35:39.061Z,54.51
2019-02-17T22:38:26.179Z,55.27
2019-02-17T22:41:13.806Z,52.70
2019-02-17T22:44:01.641Z,52.38
2019-02-17T22:46:49.369Z,53.00
2019-02-17T22:49:36.798Z,53.65
2019-02-17T22:52:24.127Z,54.60
2019-02-17T22:55:12.260Z,54.00
2019-02-17T22:57:59.990Z,54.11
2019-02-17T23:00:59.190Z,53.98
2019-02-17T23:03:46.624Z,54.61
2019-02-17T23:06:34.672Z,55.08
2019-02-17T23:09:22.284Z,55.10
2019-02-17T23:12:09.845Z,54.68
2019-02-17T23:14:57.644Z,54.31
2019-02-17T23:17:45.475Z,53.85
2019-02-17T23:20:32.899Z,54.11
2019-02-17T23:23:20.016Z,54.73
2019-02-17T23:26:07.516Z,54.24
2019-02-17T23:28:55.072Z,55.28
2019-02-17T23:31:42.400Z,55.26
2019-02-17T23:34:29.802Z,55.21
2019-02-17T23:37:17.582Z,56.35
2019-02-17T23:40:07.938Z,55.82
2019-02-17T23:42:55.161Z,55.42
2019-02-17T23:45:44.579Z,54.33
2019-02-17T23:48:32.270Z,54.12
2019-02-17T23:51:19.479Z,53.42
2019-02-17T23:54:07.712Z,53.64
2019-02-17T23:56:55.249Z,54.65
2019-02-17T23:59:48.716Z,55.48
